• Join FlightAware (Why Join?)
  • Login
  • US Flag 
10:18AM EST


 

Airport Tracker/Info


-or-


 

Live Flight TrackerFlight Track Log ✈ AAL1110 ✈ 06-May-2013 ✈ KFLL - KORD

Flight Track Log - Related Links

Times and Time Zones

All times are in EDT time to prevent confusion due to time zone crossing. See the AAL1110 flight status page for this flight to view local times or setup timezone preferences in your user account.

Time Position Orientation Groundspeed Altitude Reporting Facility
EDT Latitude Longitude Course Direction KTS MPH feet Rate Location/Type
08:11PM 26.0739 -80.1783 318° Northwest 168 193 800  Level Miami Center
08:11PM 26.0753 -80.2153 272° West 168 193 2,200 2,100 Climbing Miami Center
08:13PM 26.1988 -79.9332 354° North  Level FlightAware Approximate
08:13PM 26.2024 -80.2662 340° North  Level Estimated
08:13PM 26.1336 -80.3050 340° North 215 247 6,400  Level Miami Center
08:14PM 26.2167 -80.0579 279° West  Level FlightAware Approximate
08:14PM 26.2067 -80.3117 355° North 228 262 8,600  Level Miami Center
08:15PM 26.2337 -80.1837 312° West  Level FlightAware Approximate
08:15PM 26.2917 -80.3397 344° North 263 303 10,900  Level Miami Center
08:16PM 26.3108 -80.2775 318° Northwest  Level FlightAware Approximate
08:17PM 26.4268 -80.3938 342° North  Level Estimated
08:17PM 26.4889 -80.3942 342° North 366 421 14,100  Level Miami Center
08:18PM 26.5861 -80.4250 344° North 397 457 16,400 2,400 Climbing Miami Center
08:19PM 26.7019 -80.4772 338° Northwest 397 457 19,000 2,100 Climbing Miami Center
08:20PM 26.8011 -80.5153 341° North 407 468 20,700 2,100 Climbing Miami Center
08:21PM 26.9128 -80.5631 339° North 413 475 23,300 2,100 Climbing Miami Center
08:22PM 27.0264 -80.6061 341° North 418 481 25,000 1,620 Climbing Miami Center
08:23PM 27.1422 -80.6497 341° North 429 494 26,600 1,560 Climbing Miami Center
08:24PM 27.2578 -80.6956 341° North 435 501 28,200 1,500 Climbing Miami Center
08:25PM 27.3778 -80.7414 341° North 440 506 29,600 1,500 Climbing Miami Center
08:26PM 27.5039 -80.7881 342° North 445 512 31,300 1,560 Climbing Miami Center
08:27PM 27.6258 -80.8342 341° North 445 512 32,800 1,200 Climbing Miami Center
08:28PM 27.7372 -80.8828 339° North 445 512 33,700 1,200 Climbing Miami Center
08:30PM 27.8750 -80.9233 341° North  Level FlightAware Approximate
08:30PM 27.9767 -80.9758 341° North 445 512 36,400  Level Miami Center
08:31PM 28.0942 -81.0200 342° North 445 512 36,900 180 Climbing Miami Center
08:33PM 28.2278 -81.0732 341° North  Level FlightAware Approximate
08:33PM 28.3233 -81.1122 341° North 425 489 37,000  Level Jacksonville Center
08:35PM 28.4498 -81.1626 341° North  Level FlightAware Approximate
08:35PM 28.5564 -81.2122 341° North 444 511 37,000  Level Jacksonville Center
08:36PM 28.6717 -81.2575 341° North 444 511 37,000 -60 Level Jacksonville Center
08:37PM 28.7869 -81.3031 341° North 438 504 36,900 -60 Descending Jacksonville Center
08:38PM 28.9003 -81.3533 339° North 438 504 36,900  Level Jacksonville Center
08:39PM 29.0178 -81.4014 340° North 433 498 37,000  Climbing Jacksonville Center
08:40PM 29.1353 -81.4494 340° North 433 498 36,900  Descending Jacksonville Center
08:41PM 29.2506 -81.4978 340° North 433 498 37,000  Climbing Jacksonville Center
08:43PM 29.3776 -81.5465 342° North  Level FlightAware Approximate
08:43PM 29.4853 -81.5947 342° North 433 498 37,000  Level Jacksonville Center
08:45PM 29.6135 -81.6399 340° North  Level FlightAware Approximate
08:46PM 29.8333 -81.7361 339° North 433 498 37,000  Level Jacksonville Center
08:47PM 29.9486 -81.7828 341° North 433 498 37,000 -60 Level Jacksonville Center
08:48PM 30.0764 -81.8342 341° North 433 498 36,900  Descending Jacksonville Center
08:49PM 30.1894 -81.8808 340° North 426 490 37,000  Climbing Jacksonville Center
08:50PM 30.3047 -81.9278 341° North 434 499 37,000  Level Jacksonville Center
08:52PM 30.3876 -81.9686 339° North  Level FlightAware Approximate
08:52PM 30.4410 -81.9591 342° North  Level FlightAware Approximate
08:52PM 30.5328 -82.0194 342° North 437 503 37,000  Level Jacksonville Center
08:53PM 30.6542 -82.0692 341° North 437 503 37,000  Level Jacksonville Center
08:55PM 30.7911 -82.0952 351° North  Level FlightAware Approximate
08:55PM 30.8908 -82.1567 351° North 447 514 37,000  Level Jacksonville Center
08:56PM 31.0100 -82.2017 342° North 442 509 37,000  Level Jacksonville Center
08:57PM 31.1250 -82.2469 341° North 442 509 37,000 -60 Level Jacksonville Center
08:58PM 31.2444 -82.2900 343° North 442 509 36,900  Descending Jacksonville Center
09:00PM 31.4347 -82.3594 343° North 442 509 37,000  Climbing Atlanta Center
09:01PM 31.5542 -82.4036 343° North 442 509 37,000  Level Atlanta Center
09:03PM 31.7175 -82.4610 343° North  Level FlightAware Approximate
09:03PM 31.7953 -82.4922 343° North 442 509 37,000  Level Atlanta Center
09:04PM 31.9169 -82.5389 342° North 449 517 37,000  Level Atlanta Center
09:05PM 32.0364 -82.5836 342° North 449 517 37,000  Level Atlanta Center
09:06PM 32.1581 -82.6306 342° North 444 511 37,000  Level Atlanta Center
09:07PM 32.2797 -82.6778 342° North 449 517 37,000  Level Atlanta Center
09:08PM 32.3992 -82.7228 342° North 444 511 37,000  Level Atlanta Center
09:10PM 32.6358 -82.8153 342° North 442 509 37,000  Level Atlanta Center
09:12PM 32.8013 -82.8737 342° North  Level FlightAware Approximate
09:13PM 32.9983 -82.9564 342° North 447 514 37,000  Level Atlanta Center
09:15PM 33.2539 -83.0528 342° North 454 522 37,000  Level Atlanta Center
09:16PM 33.3753 -83.0986 343° North 454 522 37,000  Level Atlanta Center
09:17PM 33.4989 -83.1469 342° North 454 522 37,000  Level Atlanta Center
09:18PM 33.6203 -83.1956 342° North 462 532 37,000  Level Atlanta Center
09:20PM 33.7858 -83.2595 342° North  Level FlightAware Approximate
09:21PM 33.9842 -83.3347 347° North 451 519 37,000  Level Atlanta Center
09:22PM 34.1097 -83.3689 347° North 451 519 37,000  Level Atlanta Center
09:23PM 34.2350 -83.4006 348° North 459 528 37,000  Level Atlanta Center
09:24PM 34.3625 -83.4375 347° North 459 528 37,000  Level Atlanta Center
09:25PM 34.4881 -83.4692 348° North 459 528 37,000  Level Atlanta Center
09:26PM 34.6175 -83.5036 348° North 466 536 37,000  Level Atlanta Center
09:27PM 34.6018 -83.4928 347° North  Level FlightAware Approximate
09:27PM 34.7261 -83.5383 345° North 466 536 37,000  Level Atlanta Center
09:29PM 34.8968 -83.5786 349° North  Level FlightAware Approximate
09:29PM 34.9831 -83.6028 349° North 467 537 37,000  Level Atlanta Center
09:30PM 35.1083 -83.6403 346° North 467 537 37,000  Level Atlanta Center
09:31PM 35.2358 -83.6750 347° North 467 537 37,000  Level Atlanta Center
09:32PM 35.3631 -83.7103 347° North 467 537 37,000  Level Atlanta Center
09:33PM 35.4883 -83.7456 347° North 467 537 37,000  Level Atlanta Center
09:34PM 35.6178 -83.7833 347° North 467 537 37,000  Level Atlanta Center
09:35PM 35.7453 -83.8161 348° North 467 537 37,000  Level Atlanta Center
09:36PM 35.8744 -83.8517 347° North 467 537 37,100 300 Climbing Atlanta Center
09:37PM 36.0019 -83.8900 346° North 467 537 37,700 300 Climbing Atlanta Center
09:39PM 36.2589 -83.9581 348° North 469 540 38,000  Climbing Indianapolis Center
09:41PM 36.4361 -84.0098 347° North  Level FlightAware Approximate
09:42PM 36.6475 -84.0686 347° North 462 532 38,000  Level Indianapolis Center
09:43PM 36.7711 -84.1042 347° North 456 525 38,000  Level Indianapolis Center
09:44PM 36.8958 -84.1403 347° North 458 527 38,000  Level Indianapolis Center
09:45PM 37.0203 -84.1747 348° North 457 526 38,000  Level Indianapolis Center
09:46PM 37.1428 -84.2097 347° North 451 519 38,000  Level Indianapolis Center
09:47PM 37.2636 -84.2458 347° North 447 514 38,000  Level Indianapolis Center
09:48PM 37.2642 -84.2464 347° North  Level FlightAware Approximate
09:48PM 37.3850 -84.2817 347° North 446 513 38,000  Level Indianapolis Center
09:49PM 37.5250 -84.3225 347° North 443 510 38,000  Level Indianapolis Center
09:50PM 37.6464 -84.3564 348° North 446 513 38,000  Level Indianapolis Center
09:51PM 37.7669 -84.3944 346° North 446 513 38,000  Level Indianapolis Center
09:52PM 37.8847 -84.4506 339° North 451 519 38,000 -60 Level Indianapolis Center
09:53PM 38.0033 -84.5047 340° North 451 519 37,900 -420 Descending Indianapolis Center
09:54PM 38.1214 -84.5589 340° North 451 519 37,200 -720 Descending Indianapolis Center
09:55PM 38.2431 -84.6128 341° North 458 527 36,500 -420 Descending Indianapolis Center
09:57PM 38.4947 -84.7269 340° North 481 554 36,000 -180 Descending Indianapolis Center
09:58PM 38.6192 -84.7858 340° North 477 549 36,000 -420 Level Indianapolis Center
09:59PM 38.7642 -84.8550 340° North 481 554 35,200 -900 Descending Indianapolis Center
10:00PM 38.8931 -84.9133 341° North 491 565 34,200 -1,080 Descending Indianapolis Center
10:01PM 39.0092 -84.9797 336° Northwest 465 535 33,100 -1,080 Descending Indianapolis Center
10:02PM 39.1061 -85.0819 321° Northwest 452 520 32,100 -840 Descending Indianapolis Center
10:04PM 39.2689 -85.2553 321° Northwest 426 490 30,700 -720 Descending Chicago Center
10:05PM 39.3878 -85.3247 336° Northwest 397 457 30,000 -720 Descending Chicago Center
10:06PM 39.4928 -85.3569 347° North 390 449 29,300 -780 Descending Chicago Center
10:07PM 39.5964 -85.3911 346° North 388 447 28,500 -780 Descending Chicago Center
10:08PM 39.6997 -85.4233 347° North 385 443 27,800 -780 Descending Chicago Center
10:10PM 39.7997 -85.4553 346° North 377 434 27,000 -720 Descending Chicago Center
10:11PM 39.9233 -85.4947 346° North 380 437 26,300 -480 Descending Indianapolis Center
10:12PM 40.0367 -85.5308 346° North 414 476 26,000 -180 Descending Indianapolis Center
10:13PM 40.1464 -85.6008 334° Northwest 446 513 26,000  Level Chicago Center
10:14PM 40.2422 -85.7081 320° Northwest 457 526 26,000  Level Chicago Center
10:15PM 40.3311 -85.8250 315° West 456 525 26,000  Level Chicago Center
10:16PM 40.4222 -85.9414 316° Northwest 459 528 26,000  Level Chicago Center
10:18PM 40.6033 -86.1764 315° West 462 532 26,000  Level Chicago Center
10:19PM 40.6933 -86.2942 315° West 461 531 26,000 -120 Level Chicago Center
10:20PM 40.7847 -86.4203 314° West 463 533 25,800 -600 Descending Chicago Center
10:21PM 40.8750 -86.5378 315° West 461 531 24,800 -1,080 Descending Chicago Center
10:22PM 40.9619 -86.6533 315° West 444 511 23,700 -1,440 Descending Chicago Center
10:23PM 41.0631 -86.7853 315° West 437 503 21,900 -1,620 Descending Chicago Center
10:24PM 41.1461 -86.8950 315° West 426 490 20,500 -1,500 Descending Chicago Center
10:25PM 41.2250 -87.0044 314° West 416 479 18,900 -1,740 Descending Chicago Center
10:26PM 41.3022 -87.1092 314° West 402 463 17,000 -2,400 Descending Chicago Center
10:27PM 41.4167 -87.2667 314° West 377 434 13,100 -2,400 Descending Chicago TRACON
10:28PM 41.5000 -87.3500 323° Northwest 364 419 11,300 -1,500 Descending Chicago TRACON
10:29PM 41.5442 -87.4042 317° Northwest 361 415 10,700 -780 Descending Chicago Center
10:30PM 41.6178 -87.4858 320° Northwest 351 404 10,000 -360 Descending Chicago Center
10:31PM 41.6897 -87.5675 320° Northwest 345 397 10,000 -60 Level Chicago Center
10:32PM 41.7594 -87.6464 320° Northwest 334 384 9,900 -420 Descending Chicago Center
10:32PM 41.7833 -87.6667 328° Northwest 300 345 9,500 -1,260 Descending Chicago TRACON
10:33PM 41.8333 -87.7500 309° West 295 339 8,400 -1,380 Descending Chicago TRACON
10:34PM 41.8333 -87.8500 270° West 294 338 6,900 -1,500 Descending Chicago TRACON